Time;durP1;ratioP1;P1;durP2;ratioP2;P2;SDS_P1;SDS_P2;PMS_P1;PMS_P2;Temp;Humidity;BMP_temperature;BMP_pressure;BME280_temperature;BME280_humidity;BME280_pressure;Samples;Min_cycle;Max_cycle;Signal;HPM_P1;HPM_P2
2022/07/07 00:02:02;;;;;;;6.30;5.40;;;18.40;99.90;;;;;;4999316;28;20852;-61
2022/07/07 00:04:39;;;;;;;11.33;5.70;;;18.30;99.90;;;;;;5004597;28;20525;-61
2022/07/07 00:07:09;;;;;;;7.70;5.20;;;18.30;99.90;;;;;;5014236;28;20495;-61
2022/07/07 00:09:38;;;;;;;7.50;4.97;;;18.30;99.90;;;;;;5002733;28;20461;-61
2022/07/07 00:12:12;;;;;;;7.10;5.03;;;18.20;99.90;;;;;;5014314;28;20495;-61
2022/07/07 00:14:40;;;;;;;8.77;5.80;;;18.30;99.90;;;;;;5017067;28;20468;-60
2022/07/07 00:17:16;;;;;;;5.87;5.37;;;18.30;99.90;;;;;;5005398;28;20841;-61
2022/07/07 00:19:43;;;;;;;9.13;5.37;;;18.30;99.90;;;;;;4998105;28;20496;-61
2022/07/07 00:22:35;;;;;;;8.60;6.67;;;18.30;99.90;;;;;;4998264;28;20812;-61
2022/07/07 00:25:11;;;;;;;7.47;5.80;;;18.20;99.90;;;;;;4997311;28;20563;-61
2022/07/07 00:27:43;;;;;;;7.67;6.27;;;18.20;99.90;;;;;;4998987;28;20468;-61
2022/07/07 00:30:14;;;;;;;7.73;6.53;;;18.20;99.90;;;;;;5004855;28;20918;-61
2022/07/07 00:32:44;;;;;;;9.67;6.43;;;18.20;99.90;;;;;;5000514;28;20464;-60
2022/07/07 00:35:17;;;;;;;6.73;5.50;;;18.10;99.90;;;;;;4997727;28;20787;-61
2022/07/07 00:37:44;;;;;;;6.73;5.97;;;18.10;99.90;;;;;;4997926;28;20465;-61
2022/07/07 00:40:15;;;;;;;9.83;5.77;;;18.10;99.90;;;;;;4998242;28;20570;-61
2022/07/07 00:42:48;;;;;;;8.97;6.57;;;18.10;99.90;;;;;;4997494;28;20468;-61
2022/07/07 00:45:15;;;;;;;6.77;6.13;;;18.00;99.90;;;;;;4998135;28;20921;-61
2022/07/07 00:47:55;;;;;;;7.70;6.90;;;18.00;99.90;;;;;;4998169;28;20465;-61
2022/07/07 00:50:23;;;;;;;9.50;6.17;;;18.00;99.90;;;;;;4997173;28;20464;-61
2022/07/07 00:52:51;;;;;;;11.60;6.80;;;18.00;99.90;;;;;;4997516;28;20465;-61
2022/07/07 00:55:27;;;;;;;9.60;6.83;;;18.00;99.90;;;;;;4997942;28;20810;-61
2022/07/07 00:57:57;;;;;;;7.33;6.27;;;18.00;99.90;;;;;;4996588;28;20789;-61
2022/07/07 01:00:31;;;;;;;9.00;6.40;;;18.00;99.90;;;;;;4997726;28;20587;-62
2022/07/07 01:03:00;;;;;;;8.93;6.87;;;18.00;99.90;;;;;;4997638;28;20476;-61
2022/07/07 01:05:44;;;;;;;8.53;6.33;;;18.00;99.90;;;;;;4998260;28;20531;-61
2022/07/07 01:08:15;;;;;;;7.00;5.70;;;18.00;99.90;;;;;;4998145;28;20942;-61
2022/07/07 01:10:48;;;;;;;7.67;6.40;;;17.90;99.90;;;;;;4997436;28;20475;-61
2022/07/07 01:13:16;;;;;;;6.63;5.90;;;18.00;99.90;;;;;;4997782;28;20468;-61
2022/07/07 01:16:14;;;;;;;8.67;7.63;;;18.00;99.90;;;;;;4997636;28;20952;-61
2022/07/07 01:18:47;;;;;;;8.10;6.63;;;17.90;99.90;;;;;;4997331;28;20559;-61
2022/07/07 01:21:20;;;;;;;6.93;5.80;;;17.80;99.90;;;;;;4997596;28;20461;-61
2022/07/07 01:23:49;;;;;;;6.67;6.00;;;17.80;99.90;;;;;;4997476;28;20465;-61
2022/07/07 01:26:22;;;;;;;6.70;5.97;;;17.70;99.90;;;;;;4997558;28;20465;-61
2022/07/07 01:28:55;;;;;;;6.40;5.90;;;17.70;99.90;;;;;;4997878;28;20435;-61
2022/07/07 01:31:29;;;;;;;6.40;5.60;;;17.70;99.90;;;;;;4996649;28;20507;-61
2022/07/07 01:33:57;;;;;;;6.30;4.90;;;17.70;99.90;;;;;;4997499;28;20466;-61
2022/07/07 01:36:27;;;;;;;7.83;5.77;;;17.70;99.90;;;;;;4997372;28;20439;-61
2022/07/07 01:39:00;;;;;;;6.87;5.33;;;17.60;99.90;;;;;;4997336;28;20474;-61
2022/07/07 01:41:35;;;;;;;6.00;5.50;;;17.60;99.90;;;;;;4996728;28;20469;-61
2022/07/07 01:44:06;;;;;;;6.73;5.73;;;17.70;99.90;;;;;;4997456;28;20468;-60
2022/07/07 01:46:35;;;;;;;6.37;5.80;;;17.70;99.90;;;;;;4997457;28;20501;-61
2022/07/07 01:49:03;;;;;;;6.67;6.00;;;17.70;99.90;;;;;;4996755;28;20461;-61
2022/07/07 01:51:33;;;;;;;9.70;6.03;;;17.70;99.90;;;;;;4997265;28;20475;-61
2022/07/07 01:54:10;;;;;;;9.40;6.87;;;17.60;99.90;;;;;;4997466;28;20487;-61
2022/07/07 01:56:45;;;;;;;8.10;7.40;;;17.70;99.90;;;;;;4996439;28;20576;-62
2022/07/07 01:59:13;;;;;;;6.37;5.73;;;17.70;99.90;;;;;;4997327;28;20591;-61
2022/07/07 02:01:44;;;;;;;7.27;5.90;;;17.60;99.90;;;;;;4997486;28;20468;-61
2022/07/07 02:04:11;;;;;;;7.27;6.57;;;17.60;99.90;;;;;;4994374;28;20523;-61
2022/07/07 02:06:44;;;;;;;9.13;6.03;;;17.60;99.90;;;;;;5000219;28;20868;-61
2022/07/07 02:09:13;;;;;;;7.93;7.17;;;17.60;99.90;;;;;;5000722;28;20440;-62
2022/07/07 02:11:41;;;;;;;8.10;6.30;;;17.60;99.90;;;;;;5000468;28;20913;-61
2022/07/07 02:14:15;;;;;;;9.23;6.50;;;17.50;99.90;;;;;;4999768;28;20500;-61
2022/07/07 02:16:43;;;;;;;10.57;6.60;;;17.50;99.90;;;;;;4999415;28;20522;-60
2022/07/07 02:19:12;;;;;;;7.87;7.17;;;17.30;99.90;;;;;;5000184;28;20496;-60
2022/07/07 02:21:41;;;;;;;9.73;8.83;;;17.20;99.90;;;;;;4999649;28;20959;-60
2022/07/07 02:24:15;;;;;;;11.63;8.17;;;17.00;99.90;;;;;;5000666;28;20468;-60
2022/07/07 02:26:44;;;;;;;13.33;8.70;;;16.90;99.90;;;;;;4999937;28;20465;-58
2022/07/07 02:29:11;;;;;;;9.60;8.17;;;16.80;99.90;;;;;;5000391;28;20481;-60
2022/07/07 02:31:41;;;;;;;9.37;8.57;;;16.70;99.90;;;;;;5000576;28;20508;-60
2022/07/07 02:34:11;;;;;;;10.67;9.57;;;16.80;99.90;;;;;;4999679;28;20509;-61
2022/07/07 02:36:49;;;;;;;9.30;8.50;;;16.70;99.90;;;;;;4999651;28;20483;-61
2022/07/07 02:39:19;;;;;;;13.90;9.50;;;16.70;99.90;;;;;;5001788;28;20547;-61
2022/07/07 02:41:56;;;;;;;10.83;8.77;;;16.70;99.90;;;;;;4985052;28;20585;-60
2022/07/07 02:44:23;;;;;;;10.90;9.87;;;16.70;1.00;;;;;;5019219;28;20758;-59
2022/07/07 02:47:11;;;;;;;10.90;9.60;;;16.70;1.00;;;;;;5018737;28;20464;-60
2022/07/07 02:49:51;;;;;;;10.30;9.40;;;16.60;1.00;;;;;;5019570;28;20466;-60
2022/07/07 02:52:18;;;;;;;11.80;10.67;;;16.60;1.00;;;;;;5019826;28;20463;-58
2022/07/07 02:54:47;;;;;;;9.73;8.93;;;16.60;1.00;;;;;;5019606;28;20578;-59
2022/07/07 02:57:16;;;;;;;10.53;9.43;;;16.50;1.00;;;;;;5018806;28;20466;-60
2022/07/07 02:59:46;;;;;;;10.17;9.10;;;16.50;1.00;;;;;;5019340;28;20841;-60
2022/07/07 03:02:14;;;;;;;10.90;8.87;;;16.50;1.00;;;;;;5019250;28;20891;-60
2022/07/07 03:04:42;;;;;;;10.43;9.33;;;16.50;1.00;;;;;;5019774;28;20519;-61
2022/07/07 03:07:10;;;;;;;10.57;9.43;;;16.50;1.00;;;;;;5017617;28;20471;-59
2022/07/07 03:09:37;;;;;;;9.07;8.27;;;16.50;1.00;;;;;;5017953;28;20515;-61
2022/07/07 03:12:09;;;;;;;10.60;9.60;;;16.50;1.00;;;;;;5012892;28;20530;-61
2022/07/07 03:14:40;;;;;;;10.23;9.23;;;16.50;1.00;;;;;;5015369;28;20512;-61
2022/07/07 03:17:10;;;;;;;14.30;10.17;;;16.50;1.00;;;;;;5016898;28;20542;-62
2022/07/07 03:19:39;;;;;;;9.90;8.53;;;16.50;1.00;;;;;;5017943;28;20467;-62
2022/07/07 03:22:09;;;;;;;12.43;10.17;;;16.50;1.00;;;;;;5018204;28;20445;-62
2022/07/07 03:24:38;;;;;;;10.77;9.47;;;16.50;1.00;;;;;;5018213;28;20435;-62
2022/07/07 03:27:07;;;;;;;9.97;8.77;;;16.50;1.00;;;;;;5018615;28;20506;-62
2022/07/07 03:29:39;;;;;;;9.50;8.50;;;16.50;1.00;;;;;;5018873;28;20492;-62
2022/07/07 03:32:11;;;;;;;9.70;8.67;;;16.60;1.00;;;;;;5018942;28;20464;-62
2022/07/07 03:34:39;;;;;;;11.23;8.87;;;16.50;1.00;;;;;;5018749;28;20800;-62
2022/07/07 03:37:13;;;;;;;10.10;9.17;;;16.50;1.00;;;;;;5018491;28;20446;-62
2022/07/07 03:39:41;;;;;;;11.03;9.53;;;16.50;1.00;;;;;;5018146;28;20498;-62
2022/07/07 03:42:08;;;;;;;9.57;8.13;;;16.50;1.00;;;;;;5017817;28;20910;-62
2022/07/07 03:44:36;;;;;;;8.90;7.60;;;16.60;1.00;;;;;;5018862;28;20518;-62
2022/07/07 03:47:05;;;;;;;10.80;9.10;;;16.60;1.00;;;;;;5018049;28;20439;-61
2022/07/07 03:49:33;;;;;;;10.37;8.10;;;16.60;1.00;;;;;;5018568;28;20491;-61
2022/07/07 03:52:06;;;;;;;9.30;8.33;;;16.60;1.00;;;;;;5019014;28;20889;-62
2022/07/07 03:54:36;;;;;;;9.33;8.30;;;16.50;1.00;;;;;;5018653;28;20435;-62
2022/07/07 03:57:06;;;;;;;9.60;8.53;;;16.60;1.00;;;;;;5018081;28;20523;-62
2022/07/07 03:59:38;;;;;;;9.63;8.67;;;16.50;1.00;;;;;;5018304;28;20528;-63
2022/07/07 04:02:11;;;;;;;10.07;8.57;;;16.40;1.00;;;;;;5018303;28;20467;-65
2022/07/07 04:04:39;;;;;;;8.60;7.70;;;16.40;1.00;;;;;;5018157;28;20818;-65
2022/07/07 04:07:06;;;;;;;9.23;8.20;;;16.40;1.00;;;;;;5017638;28;20497;-65
2022/07/07 04:09:34;;;;;;;9.10;8.03;;;16.50;1.00;;;;;;5017926;28;20490;-65
2022/07/07 04:12:10;;;;;;;9.00;8.00;;;16.40;1.00;;;;;;5018040;28;20494;-65
2022/07/07 04:14:41;;;;;;;10.87;9.70;;;16.40;1.00;;;;;;5006940;28;20476;-65
2022/07/07 04:17:17;;;;;;;10.30;9.30;;;16.40;1.00;;;;;;4997691;28;20451;-65
2022/07/07 04:19:46;;;;;;;11.60;8.80;;;16.40;1.00;;;;;;4995056;28;20528;-63
2022/07/07 04:22:17;;;;;;;9.80;8.20;;;16.50;1.00;;;;;;4998302;28;20468;-64
2022/07/07 04:24:47;;;;;;;9.03;8.10;;;16.50;1.00;;;;;;4997911;28;20472;-64
2022/07/07 04:27:19;;;;;;;13.10;8.73;;;16.60;1.00;;;;;;4998105;28;20500;-64
2022/07/07 04:29:47;;;;;;;10.10;7.90;;;16.60;1.00;;;;;;5004884;28;20453;-63
2022/07/07 04:32:18;;;;;;;9.47;8.47;;;16.60;1.00;;;;;;5017892;28;20518;-63
2022/07/07 04:34:48;;;;;;;10.53;9.03;;;16.70;1.00;;;;;;5017754;28;20517;-63
2022/07/07 04:37:17;;;;;;;9.60;7.90;;;16.70;1.00;;;;;;5017669;28;20477;-63
2022/07/07 04:39:46;;;;;;;8.10;6.90;;;16.80;1.00;;;;;;5017745;28;21028;-63
2022/07/07 04:42:13;;;;;;;10.60;7.90;;;16.80;1.00;;;;;;5017922;28;20463;-63
2022/07/07 04:44:43;;;;;;;8.50;7.70;;;16.80;1.00;;;;;;5016696;28;20952;-63
2022/07/07 04:47:18;;;;;;;9.23;8.07;;;16.80;1.00;;;;;;5015274;28;20482;-63
2022/07/07 04:49:45;;;;;;;8.90;7.90;;;16.80;1.00;;;;;;4997135;28;20475;-63
2022/07/07 04:52:25;;;;;;;;;;;;;;;;;;;;;
2022/07/07 04:54:56;;;;;;;8.03;7.10;;;16.80;1.00;;;;;;4992045;28;20460;-63
2022/07/07 04:57:28;;;;;;;8.80;7.10;;;16.70;1.00;;;;;;4996855;28;20960;-63
2022/07/07 04:59:58;;;;;;;8.67;7.80;;;16.80;1.00;;;;;;4996498;28;20794;-64
2022/07/07 05:02:29;;;;;;;9.33;7.13;;;16.80;1.00;;;;;;5011779;28;20504;-64
2022/07/07 05:05:01;;;;;;;8.40;7.50;;;16.80;1.00;;;;;;5016875;28;20558;-64
2022/07/07 05:07:28;;;;;;;11.83;8.60;;;16.80;1.00;;;;;;5017543;28;20931;-63
2022/07/07 05:09:59;;;;;;;8.27;7.47;;;16.80;1.00;;;;;;5018715;28;20801;-62
2022/07/07 05:12:33;;;;;;;8.90;8.10;;;16.80;1.00;;;;;;5017917;28;20910;-62
2022/07/07 05:15:10;;;;;;;9.70;8.10;;;16.70;1.00;;;;;;5017074;28;20536;-60
2022/07/07 05:17:47;;;;;;;7.93;7.07;;;16.70;93.10;;;;;;5017452;28;20483;-60
2022/07/07 05:20:17;;;;;;;8.93;8.03;;;16.60;99.90;;;;;;5017779;28;20488;-58
2022/07/07 05:22:45;;;;;;;9.47;7.77;;;16.60;99.90;;;;;;5016435;28;20463;-55
2022/07/07 05:25:15;;;;;;;8.97;7.90;;;16.60;1.00;;;;;;5017382;28;20507;-58
2022/07/07 05:27:44;;;;;;;9.50;7.37;;;16.50;21.60;;;;;;5017480;28;20837;-56
2022/07/07 05:30:16;;;;;;;9.20;8.07;;;16.50;99.90;;;;;;5017451;28;20464;-59
2022/07/07 05:32:46;;;;;;;9.83;8.80;;;16.50;99.90;;;;;;5017164;28;20475;-61
2022/07/07 05:35:21;;;;;;;9.47;8.40;;;16.50;99.90;;;;;;5016812;28;20470;-62
2022/07/07 05:37:52;;;;;;;11.60;9.13;;;16.50;99.90;;;;;;5017225;28;20464;-61
2022/07/07 05:40:22;;;;;;;10.57;9.40;;;16.40;1.00;;;;;;5019757;28;20474;-60
2022/07/07 05:42:57;;;;;;;11.87;10.67;;;16.40;99.90;;;;;;5020694;28;20874;-60
2022/07/07 05:45:28;;;;;;;17.50;12.70;;;16.40;77.70;;;;;;5020863;28;20470;-61
2022/07/07 05:47:57;;;;;;;14.73;13.43;;;16.40;1.00;;;;;;5020759;28;20566;-61
2022/07/07 05:50:24;;;;;;;13.30;12.10;;;16.30;1.00;;;;;;5020464;28;20500;-61
2022/07/07 05:52:53;;;;;;;12.93;11.73;;;16.20;1.00;;;;;;5020576;28;20503;-60
2022/07/07 05:55:21;;;;;;;13.30;12.10;;;16.20;99.90;;;;;;5020409;28;20474;-60
2022/07/07 05:57:49;;;;;;;13.13;12.03;;;16.10;99.90;;;;;;5019811;28;20798;-61
2022/07/07 06:00:22;;;;;;;14.60;13.30;;;16.10;99.90;;;;;;5020719;28;20497;-61
2022/07/07 06:02:50;;;;;;;13.30;12.10;;;16.10;99.90;;;;;;5016273;28;20468;-60
2022/07/07 06:05:21;;;;;;;10.40;9.50;;;16.20;99.90;;;;;;5019877;28;20912;-60
2022/07/07 06:07:51;;;;;;;8.53;7.73;;;16.20;99.90;;;;;;5023739;28;20506;-62
2022/07/07 06:10:21;;;;;;;9.07;7.50;;;16.10;99.90;;;;;;5020177;28;20438;-61
2022/07/07 06:12:58;;;;;;;11.30;5.87;;;16.20;99.90;;;;;;5023622;28;20475;-60
2022/07/07 06:15:27;;;;;;;5.80;5.20;;;16.20;90.60;;;;;;5020076;28;20463;-58
2022/07/07 06:17:55;;;;;;;5.60;5.10;;;16.20;1.00;;;;;;5019021;28;20472;-59
2022/07/07 06:20:24;;;;;;;5.00;4.60;;;16.10;1.00;;;;;;5020061;28;20545;-60
2022/07/07 06:22:51;;;;;;;7.20;5.00;;;16.10;99.90;;;;;;5018123;28;20559;-61
2022/07/07 06:25:21;;;;;;;5.60;5.20;;;16.20;99.90;;;;;;5015466;28;20569;-61
2022/07/07 06:27:54;;;;;;;5.53;5.03;;;16.20;99.90;;;;;;4999375;28;20763;-62
2022/07/07 06:30:25;;;;;;;6.03;5.43;;;16.50;99.90;;;;;;4998738;28;20468;-63
2022/07/07 06:32:56;;;;;;;5.63;5.13;;;16.60;99.90;;;;;;4998788;28;20504;-63
2022/07/07 06:35:27;;;;;;;5.00;4.60;;;16.70;1.00;;;;;;5000051;28;20465;-63
2022/07/07 06:37:55;;;;;;;4.93;4.53;;;16.70;1.00;;;;;;5000222;28;20472;-64
2022/07/07 06:40:25;;;;;;;4.63;4.23;;;16.70;71.70;;;;;;4998818;28;20591;-64
2022/07/07 06:42:52;;;;;;;7.50;4.07;;;16.70;41.20;;;;;;4999690;28;20905;-64
2022/07/07 06:45:20;;;;;;;5.40;4.90;;;16.80;13.90;;;;;;4999631;28;20464;-64
2022/07/07 06:47:47;;;;;;;4.40;4.00;;;16.70;1.00;;;;;;4999821;28;20508;-64
2022/07/07 06:50:14;;;;;;;5.20;4.10;;;16.70;1.00;;;;;;5014374;28;20460;-65
2022/07/07 06:52:43;;;;;;;4.40;4.00;;;16.90;1.00;;;;;;5018098;28;20529;-65
2022/07/07 06:55:18;;;;;;;4.67;4.27;;;17.00;99.90;;;;;;5018240;28;20499;-66
2022/07/07 06:57:49;;;;;;;5.00;4.33;;;16.90;99.90;;;;;;5031227;28;20796;-66
2022/07/07 07:00:22;;;;;;;6.03;5.53;;;16.70;99.90;;;;;;5039141;28;20909;-66
2022/07/07 07:02:50;;;;;;;5.47;5.07;;;16.80;99.90;;;;;;5018268;28;20468;-66
2022/07/07 07:05:18;;;;;;;6.70;6.20;;;16.80;99.90;;;;;;5015632;28;20472;-66
2022/07/07 07:07:47;;;;;;;7.53;6.67;;;16.90;99.90;;;;;;5014247;28;20467;-66
2022/07/07 07:10:23;;;;;;;9.53;8.27;;;16.90;99.90;;;;;;5018117;28;20911;-66
2022/07/07 07:12:53;;;;;;;9.80;8.73;;;16.80;95.10;;;;;;5018668;28;20464;-66
2022/07/07 07:15:22;;;;;;;9.63;8.83;;;16.80;99.90;;;;;;5018357;28;20562;-66
2022/07/07 07:17:50;;;;;;;10.90;9.90;;;16.50;99.90;;;;;;5018761;28;20500;-66
2022/07/07 07:20:18;;;;;;;10.83;10.07;;;16.60;99.90;;;;;;5019222;28;20563;-66
2022/07/07 07:22:55;;;;;;;10.90;9.87;;;16.70;1.00;;;;;;5018270;28;20439;-66
2022/07/07 07:25:23;;;;;;;10.97;9.97;;;16.60;99.90;;;;;;5018698;28;20513;-67
2022/07/07 07:27:51;;;;;;;11.17;10.13;;;16.50;99.90;;;;;;5018744;28;20554;-66
2022/07/07 07:30:35;;;;;;;11.93;10.93;;;16.50;99.90;;;;;;5019112;28;20438;-66
2022/07/07 07:33:05;;;;;;;11.60;10.60;;;16.90;1.00;;;;;;5019055;28;20522;-66
2022/07/07 07:35:33;;;;;;;10.73;9.83;;;17.10;99.90;;;;;;5018444;28;20459;-66
2022/07/07 07:38:02;;;;;;;9.77;9.07;;;17.40;64.40;;;;;;5017920;28;20507;-66
2022/07/07 07:40:36;;;;;;;15.43;8.40;;;17.30;1.00;;;;;;5018833;28;20468;-65
2022/07/07 07:43:04;;;;;;;7.50;6.80;;;17.20;1.00;;;;;;5018193;28;20474;-65
2022/07/07 07:45:32;;;;;;;6.87;6.27;;;17.30;1.00;;;;;;5018274;28;20495;-66
2022/07/07 07:48:01;;;;;;;5.70;5.20;;;17.20;1.00;;;;;;5018981;28;20748;-66
2022/07/07 07:50:37;;;;;;;4.50;4.10;;;16.90;1.00;;;;;;5018865;28;20551;-65
2022/07/07 07:53:06;;;;;;;6.10;3.10;;;16.50;1.00;;;;;;5018227;28;20488;-65
2022/07/07 07:55:35;;;;;;;3.50;2.37;;;15.90;1.00;;;;;;5018589;28;20503;-63
2022/07/07 07:58:05;;;;;;;3.10;2.33;;;15.60;2.20;;;;;;5003685;28;20543;-64
2022/07/07 08:00:44;;;;;;;2.40;2.20;;;15.50;10.50;;;;;;5018220;28;20471;-62
2022/07/07 08:03:18;;;;;;;2.80;2.00;;;15.50;1.00;;;;;;5018305;28;20460;-62
2022/07/07 08:05:47;;;;;;;3.40;3.00;;;15.50;99.90;;;;;;5018128;28;20479;-62
2022/07/07 08:08:15;;;;;;;3.03;2.53;;;15.90;99.90;;;;;;5018554;28;20443;-64
2022/07/07 08:10:48;;;;;;;3.27;2.97;;;16.20;99.90;;;;;;5017996;28;20474;-65
2022/07/07 08:13:18;;;;;;;2.97;2.37;;;16.50;99.90;;;;;;5018376;28;20489;-66
2022/07/07 08:15:49;;;;;;;2.50;2.20;;;17.10;38.20;;;;;;5018050;28;20438;-67
2022/07/07 08:18:20;;;;;;;4.50;2.53;;;17.00;1.00;;;;;;5018139;28;20900;-66
2022/07/07 08:20:53;;;;;;;2.70;2.50;;;16.70;1.00;;;;;;5017877;28;20586;-68
2022/07/07 08:23:39;;;;;;;6.67;2.83;;;16.80;1.00;;;;;;5018003;28;20508;-68
2022/07/07 08:26:07;;;;;;;3.37;2.87;;;16.80;1.00;;;;;;5014185;28;20482;-65
2022/07/07 08:28:43;;;;;;;4.20;2.60;;;16.70;1.00;;;;;;5017344;28;20479;-64
2022/07/07 08:31:10;;;;;;;6.00;2.40;;;16.70;1.00;;;;;;5013959;28;20507;-65
2022/07/07 08:33:40;;;;;;;3.27;2.40;;;16.90;1.00;;;;;;5016312;28;20467;-64
2022/07/07 08:36:11;;;;;;;3.57;2.40;;;17.00;1.00;;;;;;5017834;28;20874;-64
2022/07/07 08:38:43;;;;;;;5.73;2.80;;;17.20;1.00;;;;;;5017139;28;20518;-64
2022/07/07 08:41:13;;;;;;;5.00;2.70;;;17.50;1.00;;;;;;5017428;28;20466;-64
2022/07/07 08:43:41;;;;;;;7.20;3.00;;;17.40;1.00;;;;;;5017683;28;20979;-65
2022/07/07 08:46:11;;;;;;;5.40;2.80;;;17.30;1.00;;;;;;5017661;28;20474;-65
2022/07/07 08:48:45;;;;;;;6.53;2.93;;;16.90;1.00;;;;;;5017309;28;20935;-65
2022/07/07 08:51:18;;;;;;;4.83;2.27;;;16.90;1.00;;;;;;5017302;28;20518;-65
2022/07/07 08:53:59;;;;;;;4.60;2.70;;;17.10;1.00;;;;;;5016910;28;20439;-65
2022/07/07 08:56:28;;;;;;;7.13;2.87;;;17.10;1.00;;;;;;5017618;28;20554;-66
2022/07/07 08:58:57;;;;;;;4.20;2.10;;;17.10;1.00;;;;;;5016488;28;20960;-65
2022/07/07 09:01:25;;;;;;;4.50;2.70;;;17.40;1.00;;;;;;5016857;28;20513;-66
2022/07/07 09:03:52;;;;;;;4.47;2.60;;;17.60;99.90;;;;;;5017146;28;20952;-65
2022/07/07 09:06:28;;;;;;;4.47;2.30;;;17.80;99.90;;;;;;5017308;28;20555;-66
2022/07/07 09:09:03;;;;;;;9.30;3.40;;;17.90;99.90;;;;;;4989146;28;20475;-65
2022/07/07 09:11:37;;;;;;;4.57;2.00;;;18.30;99.90;;;;;;4977476;28;20465;-65
2022/07/07 09:14:19;;;;;;;4.20;2.67;;;18.60;99.90;;;;;;4980029;28;20521;-65
2022/07/07 09:16:50;;;;;;;7.30;2.40;;;18.70;99.90;;;;;;4981883;28;20873;-64
2022/07/07 09:19:31;;;;;;;7.53;2.10;;;18.60;99.90;;;;;;4979893;28;20560;-64
2022/07/07 09:21:58;;;;;;;4.23;2.00;;;18.30;99.90;;;;;;4982151;28;20901;-64
2022/07/07 09:24:27;;;;;;;5.43;2.27;;;18.50;99.90;;;;;;4982054;28;20566;-65
2022/07/07 09:26:55;;;;;;;3.13;2.17;;;18.30;99.90;;;;;;4981890;28;20469;-63
2022/07/07 09:29:24;;;;;;;2.90;2.20;;;18.00;99.90;;;;;;4990136;28;20526;-64
2022/07/07 09:31:57;;;;;;;4.50;2.60;;;17.70;99.90;;;;;;5001857;28;20488;-64
2022/07/07 09:34:34;;;;;;;4.40;2.50;;;17.60;99.90;;;;;;4999660;28;20567;-63
2022/07/07 09:39:58;;;;;;;3.37;1.97;;;16.90;99.90;;;;;;5000969;28;20436;-66
2022/07/07 09:42:28;;;;;;;2.60;2.00;;;16.50;99.90;;;;;;5000970;28;20560;-64
2022/07/07 09:45:00;;;;;;;3.23;2.20;;;16.40;1.00;;;;;;5001276;28;20468;-64
2022/07/07 09:47:29;;;;;;;3.57;1.80;;;16.30;1.00;;;;;;5001274;28;20505;-63
2022/07/07 09:50:04;;;;;;;2.60;2.27;;;16.60;1.00;;;;;;5001273;28;20465;-66
2022/07/07 09:52:45;;;;;;;2.87;2.10;;;16.70;1.00;;;;;;5001676;28;20478;-65
2022/07/07 09:55:17;;;;;;;3.80;2.20;;;16.60;1.00;;;;;;5001045;28;20832;-64
2022/07/07 09:57:50;;;;;;;4.93;2.97;;;17.00;1.00;;;;;;5010687;28;20526;-65
2022/07/07 10:00:18;;;;;;;3.43;2.37;;;17.20;1.00;;;;;;5019999;28;20463;-65
2022/07/07 10:02:47;;;;;;;3.60;1.70;;;17.10;1.00;;;;;;5020188;28;20477;-67
2022/07/07 10:05:24;;;;;;;4.60;2.00;;;17.80;1.00;;;;;;5019781;28;20467;-67
2022/07/07 10:07:58;;;;;;;3.30;1.87;;;17.90;1.00;;;;;;5020277;28;20474;-66
2022/07/07 10:10:31;;;;;;;3.00;1.47;;;18.30;1.00;;;;;;5020441;28;20472;-65
2022/07/07 10:13:00;;;;;;;4.60;1.70;;;18.70;99.90;;;;;;5019887;28;20528;-65
2022/07/07 10:15:30;;;;;;;2.93;2.00;;;18.50;99.90;;;;;;5020394;28;20464;-64
2022/07/07 10:18:12;;;;;;;2.50;2.03;;;18.60;99.90;;;;;;5020517;28;20559;-64
2022/07/07 10:20:49;;;;;;;2.20;1.50;;;18.40;99.90;;;;;;5019963;28;20895;-66
2022/07/07 10:23:22;;;;;;;2.50;1.90;;;18.50;99.90;;;;;;5020026;28;20534;-66
2022/07/07 10:26:06;;;;;;;2.00;1.70;;;18.80;99.90;;;;;;5020531;28;20503;-66
2022/07/07 10:28:57;;;;;;;2.80;1.77;;;19.70;99.90;;;;;;5015590;28;20506;-66
2022/07/07 10:31:28;;;;;;;2.47;2.03;;;19.80;99.90;;;;;;5013532;28;20467;-66
2022/07/07 10:33:56;;;;;;;2.13;1.37;;;20.00;99.90;;;;;;5019751;28;20471;-66
2022/07/07 10:36:26;;;;;;;6.27;2.10;;;20.20;99.90;;;;;;5020027;28;20442;-64
2022/07/07 10:39:06;;;;;;;2.80;1.63;;;19.70;99.90;;;;;;5019199;28;20468;-66
2022/07/07 10:41:43;;;;;;;1.90;1.70;;;19.50;99.90;;;;;;5019687;28;20501;-66
2022/07/07 10:44:11;;;;;;;3.47;2.37;;;18.50;99.90;;;;;;5020222;28;20471;-64
2022/07/07 10:46:39;;;;;;;2.57;1.87;;;17.90;99.90;;;;;;5019302;28;20500;-66
2022/07/07 10:49:10;;;;;;;2.30;1.90;;;17.40;1.00;;;;;;5018722;28;20537;-64
2022/07/07 10:51:58;;;;;;;2.20;1.87;;;17.20;1.00;;;;;;5019633;28;20467;-63
2022/07/07 10:54:41;;;;;;;4.33;2.90;;;16.90;1.00;;;;;;5018944;28;20460;-60
2022/07/07 10:57:21;;;;;;;2.80;2.43;;;16.80;1.00;;;;;;5018743;28;20491;-56
2022/07/07 11:00:16;;;;;;;3.97;2.60;;;16.40;1.00;;;;;;5019171;28;20466;-60
2022/07/07 11:02:56;;;;;;;4.10;2.80;;;16.60;99.90;;;;;;5018666;28;20495;-60
2022/07/07 11:05:36;;;;;;;4.50;3.33;;;16.70;79.30;;;;;;5019675;28;20479;-58
2022/07/07 11:08:12;;;;;;;4.00;2.20;;;17.10;37.10;;;;;;5019488;28;20499;-62
2022/07/07 11:10:56;;;;;;;2.33;1.93;;;17.70;1.00;;;;;;5018996;28;20519;-61
2022/07/07 11:13:43;;;;;;;2.90;2.50;;;18.40;1.00;;;;;;5018815;28;20550;-62
2022/07/07 11:16:21;;;;;;;4.10;2.50;;;19.60;1.00;;;;;;5019147;28;20498;-63
2022/07/07 11:18:56;;;;;;;10.27;2.60;;;20.20;1.00;;;;;;5018422;28;20515;-63
2022/07/07 11:21:37;;;;;;;4.00;2.00;;;19.90;99.90;;;;;;5018978;28;20892;-63
2022/07/07 11:24:18;;;;;;;2.63;2.10;;;19.70;99.90;;;;;;5018332;28;20804;-62
2022/07/07 11:27:03;;;;;;;2.33;2.13;;;19.40;99.90;;;;;;5017715;28;20464;-63
2022/07/07 11:29:32;;;;;;;3.77;2.90;;;18.80;99.90;;;;;;5016070;28;20750;-63
2022/07/07 11:32:08;;;;;;;4.40;2.80;;;18.70;99.90;;;;;;5019067;28;20460;-61
2022/07/07 11:34:48;;;;;;;5.27;2.80;;;18.60;99.90;;;;;;5018868;28;20502;-61
2022/07/07 11:37:24;;;;;;;3.00;2.70;;;18.40;99.90;;;;;;5018166;28;20470;-63
2022/07/07 11:39:52;;;;;;;4.20;3.00;;;18.30;99.90;;;;;;5018676;28;20519;-64
2022/07/07 11:42:19;;;;;;;3.63;2.83;;;18.00;99.90;;;;;;5018797;28;20498;-64
2022/07/07 12:35:37;;;;;;;3.57;2.37;;;18.60;1.00;;;;;;4407035;28;20526;-62
2022/07/07 12:38:06;;;;;;;3.90;2.67;;;18.20;99.90;;;;;;5017597;28;20434;-62
2022/07/07 12:40:41;;;;;;;2.90;2.57;;;18.30;1.00;;;;;;5017672;28;20456;-62
2022/07/07 12:43:14;;;;;;;4.23;2.50;;;18.50;99.90;;;;;;5017308;28;20518;-63
2022/07/07 12:45:47;;;;;;;2.50;2.10;;;18.40;99.90;;;;;;5020146;28;20471;-63
2022/07/07 12:48:24;;;;;;;3.47;2.10;;;18.20;99.90;;;;;;5017223;28;20468;-63
2022/07/07 12:51:06;;;;;;;6.40;3.23;;;18.20;99.90;;;;;;5017143;28;20771;-63
2022/07/07 12:53:49;;;;;;;3.80;2.67;;;18.30;99.90;;;;;;5017179;28;20467;-62
2022/07/07 12:56:19;;;;;;;2.43;2.17;;;18.70;99.90;;;;;;5016839;28;20474;-63
2022/07/07 12:58:52;;;;;;;5.73;2.60;;;19.00;99.90;;;;;;5017015;28;20460;-63
2022/07/07 13:01:33;;;;;;;7.17;2.70;;;19.50;99.90;;;;;;5017111;28;20464;-63
2022/07/07 13:04:02;;;;;;;2.77;2.10;;;19.80;99.90;;;;;;5015377;28;20768;-63
2022/07/07 13:06:36;;;;;;;2.67;2.20;;;19.80;99.90;;;;;;5017361;28;20772;-64
2022/07/07 13:09:07;;;;;;;2.93;2.07;;;19.90;99.90;;;;;;5016288;28;20813;-64
2022/07/07 13:11:34;;;;;;;3.20;2.50;;;19.50;99.90;;;;;;5017442;28;20463;-64
2022/07/07 13:14:11;;;;;;;3.20;2.63;;;18.70;99.90;;;;;;5017163;28;20460;-65
2022/07/07 13:16:44;;;;;;;4.40;2.30;;;18.40;99.90;;;;;;5016810;28;20471;-65
2022/07/07 13:19:12;;;;;;;3.97;2.43;;;18.30;99.90;;;;;;5016724;28;20470;-65
2022/07/07 13:21:48;;;;;;;2.83;1.93;;;18.50;99.90;;;;;;5017178;28;20468;-65
2022/07/07 13:24:15;;;;;;;3.67;2.57;;;18.40;99.90;;;;;;5017572;28;20459;-65
2022/07/07 13:26:51;;;;;;;4.67;2.70;;;18.00;99.90;;;;;;5017279;28;20892;-65
2022/07/07 13:29:20;;;;;;;2.60;2.40;;;17.90;99.90;;;;;;5028422;28;20808;-65
2022/07/07 13:31:50;;;;;;;3.80;2.40;;;18.00;1.00;;;;;;5036729;28;20557;-64
2022/07/07 13:34:20;;;;;;;3.47;3.17;;;18.20;1.00;;;;;;5033132;28;20472;-64
2022/07/07 13:36:51;;;;;;;4.33;2.70;;;18.50;1.00;;;;;;5016690;28;20464;-66
2022/07/07 13:39:18;;;;;;;5.13;2.30;;;18.40;99.90;;;;;;5016682;28;20470;-65
2022/07/07 13:41:48;;;;;;;4.10;2.67;;;18.50;99.90;;;;;;5016319;28;20477;-65
2022/07/07 13:44:24;;;;;;;2.73;2.23;;;18.60;99.90;;;;;;5016900;28;20986;-64
2022/07/07 13:46:55;;;;;;;2.87;2.23;;;18.40;99.90;;;;;;5000330;28;20460;-65
2022/07/07 13:49:30;;;;;;;7.47;4.87;;;18.20;99.90;;;;;;5016474;28;20471;-65
2022/07/07 13:52:06;;;;;;;10.20;2.90;;;18.10;99.90;;;;;;5016849;28;20566;-64
2022/07/07 13:54:39;;;;;;;2.50;2.10;;;18.10;99.90;;;;;;5016931;28;20459;-64
2022/07/07 13:57:16;;;;;;;2.43;2.23;;;18.00;99.90;;;;;;5016045;28;20468;-64
2022/07/07 13:59:48;;;;;;;3.77;2.30;;;18.00;99.90;;;;;;5017277;28;20472;-64
2022/07/07 14:02:17;;;;;;;3.30;2.10;;;17.70;99.90;;;;;;5010573;28;20464;-64
2022/07/07 14:04:46;;;;;;;4.10;2.40;;;17.70;99.90;;;;;;5019999;28;20463;-64
2022/07/07 14:07:22;;;;;;;3.90;2.50;;;17.50;1.00;;;;;;5020062;28;20470;-64
2022/07/07 14:09:53;;;;;;;3.97;2.60;;;17.60;99.90;;;;;;5020704;28;20733;-64